Time,TemperatureF,DewpointF,PressureIn,WindDirection,WindDirectionDegrees,WindSpeedMPH,WindSpeedGustMPH,Humidity,HourlyPrecipIn,Conditions,Clouds,dailyrainin,SoftwareType,DateUTC
2013-07-02 00:02:00,98.4,59.7,29.70,North,6,0.0,1.0,28,0.00,,,0.00,Wunderground v.1.15,2013-07-02 07:02:00,
2013-07-02 00:07:00,98.3,59.6,29.69,East,92,1.0,1.0,28,0.00,,,0.00,Wunderground v.1.15,2013-07-02 07:07:00,
2013-07-02 00:12:00,98.4,58.7,29.69,NW,319,0.0,6.0,27,0.00,,,0.00,Wunderground v.1.15,2013-07-02 07:12:00,
2013-07-02 00:18:00,98.5,58.8,29.69,NW,314,0.0,6.0,27,0.00,,,0.00,Wunderground v.1.15,2013-07-02 07:18:00,
2013-07-02 00:23:00,98.7,57.9,29.70,ENE,58,0.0,1.0,26,0.00,,,0.00,Wunderground v.1.15,2013-07-02 07:23:00,
2013-07-02 00:28:00,98.7,57.9,29.70,ESE,107,1.0,1.0,26,0.00,,,0.00,Wunderground v.1.15,2013-07-02 07:28:00,
2013-07-02 00:33:00,98.5,58.8,29.70,NW,308,0.0,3.0,27,0.00,,,0.00,Wunderground v.1.15,2013-07-02 07:33:00,
2013-07-02 00:38:00,98.2,58.5,29.70,North,359,1.0,3.0,27,0.00,,,0.00,Wunderground v.1.15,2013-07-02 07:38:00,
2013-07-02 00:44:00,98.0,58.3,29.69,North,11,0.0,1.0,27,0.00,,,0.00,Wunderground v.1.15,2013-07-02 07:44:00,
2013-07-02 00:49:00,97.8,58.2,29.69,ESE,105,1.0,3.0,27,0.00,,,0.00,Wunderground v.1.15,2013-07-02 07:49:00,
2013-07-02 00:54:00,97.7,57.0,29.69,East,93,1.0,1.0,26,0.00,,,0.00,Wunderground v.1.15,2013-07-02 07:54:00,
2013-07-02 00:59:00,97.6,56.9,29.69,WNW,301,0.0,1.0,26,0.00,,,0.00,Wunderground v.1.15,2013-07-02 07:59:00,
2013-07-02 01:04:00,97.5,56.9,29.69,NNW,335,0.0,1.0,26,0.00,,,0.00,Wunderground v.1.15,2013-07-02 08:04:00,
2013-07-02 01:09:00,97.5,56.9,29.69,NNW,339,0.0,1.0,26,0.00,,,0.00,Wunderground v.1.15,2013-07-02 08:09:00,
2013-07-02 01:14:00,97.5,56.9,29.69,NNE,25,1.0,2.0,26,0.00,,,0.00,Wunderground v.1.15,2013-07-02 08:14:00,
2013-07-02 01:20:00,97.6,56.9,29.69,SSW,198,0.0,0.0,26,0.00,,,0.00,Wunderground v.1.15,2013-07-02 08:20:00,
2013-07-02 01:25:00,97.5,55.8,29.69,West,274,0.0,1.0,25,0.00,,,0.00,Wunderground v.1.15,2013-07-02 08:25:00,
2013-07-02 01:30:00,97.3,55.6,29.69,East,81,0.0,0.0,25,0.00,,,0.00,Wunderground v.1.15,2013-07-02 08:30:00,
2013-07-02 01:35:00,97.1,55.4,29.69,West,264,0.0,1.0,25,0.00,,,0.00,Wunderground v.1.15,2013-07-02 08:35:00,
2013-07-02 01:40:00,97.1,55.4,29.69,ENE,73,0.0,0.0,25,0.00,,,0.00,Wunderground v.1.15,2013-07-02 08:40:00,
2013-07-02 01:45:00,97.1,54.3,29.69,SE,128,1.0,1.0,24,0.00,,,0.00,Wunderground v.1.15,2013-07-02 08:45:00,
2013-07-02 01:50:00,97.4,54.6,29.69,WNW,286,0.0,1.0,24,0.00,,,0.00,Wunderground v.1.15,2013-07-02 08:50:00,
2013-07-02 01:56:00,97.4,55.7,29.69,WNW,283,0.0,1.0,25,0.00,,,0.00,Wunderground v.1.15,2013-07-02 08:56:00,
2013-07-02 02:01:00,97.1,55.4,29.69,North,351,0.0,0.0,25,0.00,,,0.00,Wunderground v.1.15,2013-07-02 09:01:00,
2013-07-02 02:06:00,96.8,54.1,29.69,North,352,0.0,0.0,24,0.00,,,0.00,Wunderground v.1.15,2013-07-02 09:06:00,
2013-07-02 02:11:00,96.5,56.0,29.70,NNW,348,0.0,0.0,26,0.00,,,0.00,Wunderground v.1.15,2013-07-02 09:11:00,
2013-07-02 02:16:00,96.1,55.7,29.70,NNW,333,0.0,1.0,26,0.00,,,0.00,Wunderground v.1.15,2013-07-02 09:16:00,
2013-07-02 02:21:00,95.8,55.4,29.69,South,191,0.0,1.0,26,0.00,,,0.00,Wunderground v.1.15,2013-07-02 09:21:00,
2013-07-02 02:26:00,95.5,56.2,29.69,South,184,1.0,1.0,27,0.00,,,0.00,Wunderground v.1.15,2013-07-02 09:26:00,
2013-07-02 02:31:00,95.5,56.2,29.69,SSE,158,0.0,3.0,27,0.00,,,0.00,Wunderground v.1.15,2013-07-02 09:31:00,
2013-07-02 02:36:00,95.4,56.1,29.68,SSW,207,0.0,3.0,27,0.00,,,0.00,Wunderground v.1.15,2013-07-02 09:36:00,
2013-07-02 02:41:00,95.3,56.0,29.69,North,360,0.0,0.0,27,0.00,,,0.00,Wunderground v.1.15,2013-07-02 09:41:00,
2013-07-02 02:46:00,95.1,55.9,29.69,North,354,0.0,1.0,27,0.00,,,0.00,Wunderground v.1.15,2013-07-02 09:46:00,
2013-07-02 02:51:00,95.1,55.9,29.69,WSW,245,0.0,1.0,27,0.00,,,0.00,Wunderground v.1.15,2013-07-02 09:51:00,
2013-07-02 02:56:00,94.9,55.7,29.69,ESE,104,0.0,1.0,27,0.00,,,0.00,Wunderground v.1.15,2013-07-02 09:56:00,
2013-07-02 03:01:00,95.1,55.9,29.69,SE,134,1.0,2.0,27,0.00,,,0.00,Wunderground v.1.15,2013-07-02 10:01:00,
2013-07-02 03:06:00,95.4,56.1,29.69,East,89,1.0,3.0,27,0.00,,,0.00,Wunderground v.1.15,2013-07-02 10:06:00,
2013-07-02 03:11:00,95.5,56.2,29.69,East,101,0.0,1.0,27,0.00,,,0.00,Wunderground v.1.15,2013-07-02 10:11:00,
2013-07-02 03:16:00,95.6,57.3,29.69,NNW,340,0.0,2.0,28,0.00,,,0.00,Wunderground v.1.15,2013-07-02 10:16:00,
2013-07-02 03:22:00,95.7,56.4,29.69,NW,325,0.0,1.0,27,0.00,,,0.00,Wunderground v.1.15,2013-07-02 10:22:00,
2013-07-02 03:27:00,95.6,56.3,29.69,NE,45,1.0,3.0,27,0.00,,,0.00,Wunderground v.1.15,2013-07-02 10:27:00,
2013-07-02 03:32:00,95.7,56.4,29.69,ESE,122,1.0,3.0,27,0.00,,,0.00,Wunderground v.1.15,2013-07-02 10:32:00,
2013-07-02 03:37:00,95.7,56.4,29.69,NW,307,0.0,3.0,27,0.00,,,0.00,Wunderground v.1.15,2013-07-02 10:37:00,
2013-07-02 03:42:00,95.5,56.2,29.69,NW,308,0.0,1.0,27,0.00,,,0.00,Wunderground v.1.15,2013-07-02 10:42:00,
2013-07-02 03:47:00,95.2,55.9,29.69,SE,139,0.0,2.0,27,0.00,,,0.00,Wunderground v.1.15,2013-07-02 10:47:00,
2013-07-02 03:52:00,95.1,55.9,29.69,ESE,117,0.0,1.0,27,0.00,,,0.00,Wunderground v.1.15,2013-07-02 10:52:00,
2013-07-02 03:57:00,95.0,55.8,29.69,West,276,1.0,2.0,27,0.00,,,0.00,Wunderground v.1.15,2013-07-02 10:57:00,
2013-07-02 04:02:00,94.8,55.6,29.69,West,262,0.0,1.0,27,0.00,,,0.00,Wunderground v.1.15,2013-07-02 11:02:00,
2013-07-02 04:07:00,94.5,55.4,29.69,NW,312,0.0,1.0,27,0.00,,,0.00,Wunderground v.1.15,2013-07-02 11:07:00,
2013-07-02 04:12:00,94.4,55.3,29.69,ENE,73,0.0,1.0,27,0.00,,,0.00,Wunderground v.1.15,2013-07-02 11:12:00,
2013-07-02 04:17:00,94.4,55.3,29.69,ESE,115,0.0,1.0,27,0.00,,,0.00,Wunderground v.1.15,2013-07-02 11:17:00,
2013-07-02 04:22:00,94.4,55.3,29.70,ESE,105,0.0,1.0,27,0.00,,,0.00,Wunderground v.1.15,2013-07-02 11:22:00,
2013-07-02 04:27:00,94.3,55.2,29.70,South,187,0.0,1.0,27,0.00,,,0.00,Wunderground v.1.15,2013-07-02 11:27:00,
2013-07-02 04:32:00,92.3,60.7,29.71,North,355,0.0,7.0,35,0.00,,,0.00,Wunderground v.1.15,2013-07-02 11:32:00,
2013-07-02 04:37:00,89.2,61.0,29.71,North,360,2.0,7.0,39,0.00,,,0.00,Wunderground v.1.15,2013-07-02 11:37:00,
2013-07-02 04:42:00,87.2,61.3,29.71,North,10,0.0,3.0,42,0.00,,,0.00,Wunderground v.1.15,2013-07-02 11:42:00,
2013-07-02 04:47:00,86.2,61.1,29.71,North,8,0.0,3.0,43,0.00,,,0.00,Wunderground v.1.15,2013-07-02 11:47:00,
2013-07-02 04:52:00,85.9,60.1,29.71,ENE,61,0.0,1.0,42,0.00,,,0.00,Wunderground v.1.15,2013-07-02 11:52:00,
2013-07-02 04:57:00,85.8,60.1,29.72,ENE,61,0.0,1.0,42,0.00,,,0.00,Wunderground v.1.15,2013-07-02 11:57:00,
2013-07-02 05:02:00,86.0,60.2,29.72,NW,305,0.0,0.0,42,0.00,,,0.00,Wunderground v.1.15,2013-07-02 12:02:00,
2013-07-02 05:07:00,86.1,60.3,29.72,South,177,0.0,1.0,42,0.00,,,0.00,Wunderground v.1.15,2013-07-02 12:07:00,
2013-07-02 05:12:00,85.8,60.7,29.73,SSE,152,0.0,0.0,43,0.00,,,0.00,Wunderground v.1.15,2013-07-02 12:12:00,
2013-07-02 05:18:00,85.9,60.8,29.73,ESE,114,0.0,2.0,43,0.00,,,0.00,Wunderground v.1.15,2013-07-02 12:18:00,
2013-07-02 05:22:00,86.0,60.2,29.73,East,101,0.0,0.0,42,0.00,,,0.00,Wunderground v.1.15,2013-07-02 12:22:00,
2013-07-02 05:27:00,86.3,59.8,29.73,East,100,0.0,1.0,41,0.00,,,0.00,Wunderground v.1.15,2013-07-02 12:27:00,
2013-07-02 05:32:00,85.0,62.5,29.73,NW,325,0.0,1.0,47,0.00,,,0.00,Wunderground v.1.15,2013-07-02 12:32:00,
2013-07-02 05:37:00,84.3,61.9,29.74,WSW,243,1.0,2.0,47,0.00,,,0.00,Wunderground v.1.15,2013-07-02 12:37:00,
2013-07-02 05:42:00,85.0,60.6,29.74,SW,228,3.0,4.0,44,0.00,,,0.00,Wunderground v.1.15,2013-07-02 12:42:00,
2013-07-02 05:48:00,86.3,59.1,29.75,West,263,0.0,5.0,40,0.00,,,0.00,Wunderground v.1.15,2013-07-02 12:48:00,
2013-07-02 05:53:00,87.3,56.3,29.75,East,101,0.0,2.0,35,0.00,,,0.00,Wunderground v.1.15,2013-07-02 12:53:00,
2013-07-02 05:58:00,89.3,55.6,29.75,North,360,0.0,4.0,32,0.00,,,0.00,Wunderground v.1.15,2013-07-02 12:58:00,
2013-07-02 06:03:00,91.3,55.5,29.76,ENE,70,1.0,3.0,30,0.00,,,0.00,Wunderground v.1.15,2013-07-02 13:03:00,
2013-07-02 06:08:00,92.3,55.4,29.77,NE,50,0.0,5.0,29,0.00,,,0.00,Wunderground v.1.15,2013-07-02 13:08:00,
2013-07-02 06:13:00,93.1,55.2,29.77,ESE,108,1.0,4.0,28,0.00,,,0.00,Wunderground v.1.15,2013-07-02 13:13:00,
2013-07-02 06:18:00,93.4,54.4,29.78,NE,34,1.0,4.0,27,0.00,,,0.00,Wunderground v.1.15,2013-07-02 13:18:00,
2013-07-02 06:23:00,93.6,55.6,29.78,West,269,1.0,4.0,28,0.00,,,0.00,Wunderground v.1.15,2013-07-02 13:23:00,
2013-07-02 06:28:00,93.6,55.6,29.78,NE,40,2.0,5.0,28,0.00,,,0.00,Wunderground v.1.15,2013-07-02 13:28:00,
2013-07-02 06:33:00,93.3,56.3,29.78,East,94,0.0,4.0,29,0.00,,,0.00,Wunderground v.1.15,2013-07-02 13:33:00,
2013-07-02 06:38:00,93.1,57.1,29.79,North,359,2.0,5.0,30,0.00,,,0.00,Wunderground v.1.15,2013-07-02 13:38:00,
2013-07-02 06:43:00,93.0,57.0,29.79,East,91,2.0,4.0,30,0.00,,,0.00,Wunderground v.1.15,2013-07-02 13:43:00,
2013-07-02 06:48:00,92.8,56.8,29.80,East,92,1.0,4.0,30,0.00,,,0.00,Wunderground v.1.15,2013-07-02 13:48:00,
2013-07-02 06:53:00,92.7,57.6,29.81,ENE,65,0.0,2.0,31,0.00,,,0.00,Wunderground v.1.15,2013-07-02 13:53:00,
2013-07-02 06:58:00,92.8,57.7,29.81,ESE,113,2.0,4.0,31,0.00,,,0.00,Wunderground v.1.15,2013-07-02 13:58:00,
2013-07-02 07:03:00,92.9,58.7,29.82,East,97,2.0,3.0,32,0.00,,,0.00,Wunderground v.1.15,2013-07-02 14:03:00,
2013-07-02 07:08:00,92.9,59.6,29.83,NE,53,1.0,5.0,33,0.00,,,0.00,Wunderground v.1.15,2013-07-02 14:08:00,
2013-07-02 07:13:00,93.0,59.6,29.84,NNE,15,1.0,4.0,33,0.00,,,0.00,Wunderground v.1.15,2013-07-02 14:13:00,
2013-07-02 07:18:00,93.2,59.8,29.85,ESE,111,2.0,4.0,33,0.00,,,0.00,Wunderground v.1.15,2013-07-02 14:18:00,
2013-07-02 07:23:00,93.4,60.0,29.85,ENE,71,3.0,5.0,33,0.00,,,0.00,Wunderground v.1.15,2013-07-02 14:23:00,
2013-07-02 07:28:00,93.6,61.0,29.86,SE,125,10.0,10.0,34,0.00,,,0.00,Wunderground v.1.15,2013-07-02 14:28:00,
2013-07-02 07:33:00,93.6,61.8,29.86,ESE,106,3.0,9.0,35,0.00,,,0.00,Wunderground v.1.15,2013-07-02 14:33:00,
2013-07-02 07:38:00,93.4,62.5,29.86,ENE,75,3.0,9.0,36,0.00,,,0.00,Wunderground v.1.15,2013-07-02 14:38:00,
2013-07-02 07:43:00,93.3,61.6,29.86,SE,124,2.0,4.0,35,0.00,,,0.00,Wunderground v.1.15,2013-07-02 14:43:00,
2013-07-02 07:48:00,94.0,57.8,29.87,SSE,156,9.0,11.0,30,0.00,,,0.00,Wunderground v.1.15,2013-07-02 14:48:00,
2013-07-02 07:53:00,94.3,59.0,29.86,East,84,5.0,14.0,31,0.00,,,0.00,Wunderground v.1.15,2013-07-02 14:53:00,
2013-07-02 07:58:00,94.4,60.0,29.86,ESE,112,4.0,14.0,32,0.00,,,0.00,Wunderground v.1.15,2013-07-02 14:58:00,
2013-07-02 08:04:00,94.4,60.0,29.86,SE,128,7.0,15.0,32,0.00,,,0.00,Wunderground v.1.15,2013-07-02 15:04:00,
2013-07-02 08:09:00,94.5,60.1,29.86,ESE,103,8.0,15.0,32,0.00,,,0.00,Wunderground v.1.15,2013-07-02 15:09:00,
2013-07-02 08:14:00,94.6,61.0,29.86,ESE,123,8.0,10.0,33,0.00,,,0.00,Wunderground v.1.15,2013-07-02 15:14:00,
2013-07-02 08:19:00,94.5,60.1,29.86,NE,55,6.0,13.0,32,0.00,,,0.00,Wunderground v.1.15,2013-07-02 15:19:00,
2013-07-02 08:24:00,94.5,60.1,29.86,ESE,108,6.0,11.0,32,0.00,,,0.00,Wunderground v.1.15,2013-07-02 15:24:00,
2013-07-02 08:29:00,94.6,60.2,29.85,NNE,28,1.0,11.0,32,0.00,,,0.00,Wunderground v.1.15,2013-07-02 15:29:00,
2013-07-02 08:34:00,94.6,60.2,29.85,ENE,78,4.0,10.0,32,0.00,,,0.00,Wunderground v.1.15,2013-07-02 15:34:00,
2013-07-02 08:39:00,94.5,60.1,29.84,East,90,4.0,16.0,32,0.00,,,0.00,Wunderground v.1.15,2013-07-02 15:39:00,
2013-07-02 08:44:00,94.5,61.0,29.84,ENE,75,1.0,8.0,33,0.00,,,0.00,Wunderground v.1.15,2013-07-02 15:44:00,
2013-07-02 08:49:00,94.8,61.2,29.83,NW,307,2.0,8.0,33,0.00,,,0.00,Wunderground v.1.15,2013-07-02 15:49:00,
2013-07-02 08:54:00,94.9,61.3,29.82,ENE,76,9.0,11.0,33,0.00,,,0.00,Wunderground v.1.15,2013-07-02 15:54:00,
2013-07-02 08:59:00,95.0,61.4,29.82,NNW,332,6.0,11.0,33,0.00,,,0.00,Wunderground v.1.15,2013-07-02 15:59:00,
2013-07-02 09:04:00,95.3,61.6,29.83,ESE,105,5.0,10.0,33,0.00,,,0.00,Wunderground v.1.15,2013-07-02 16:04:00,
2013-07-02 09:09:00,95.7,61.1,29.84,ESE,108,4.0,10.0,32,0.00,,,0.00,Wunderground v.1.15,2013-07-02 16:09:00,
2013-07-02 09:14:00,95.9,61.3,29.84,NNW,338,4.0,8.0,32,0.00,,,0.00,Wunderground v.1.15,2013-07-02 16:14:00,
2013-07-02 09:19:00,96.1,61.5,29.84,ESE,105,3.0,11.0,32,0.00,,,0.00,Wunderground v.1.15,2013-07-02 16:19:00,
2013-07-02 09:24:00,96.3,60.7,29.83,WNW,294,3.0,13.0,31,0.00,,,0.00,Wunderground v.1.15,2013-07-02 16:24:00,
2013-07-02 09:29:00,96.6,61.0,29.82,SSW,193,2.0,13.0,31,0.00,,,0.00,Wunderground v.1.15,2013-07-02 16:29:00,
2013-07-02 09:34:00,96.9,61.3,29.81,SW,236,6.0,8.0,31,0.00,,,0.00,Wunderground v.1.15,2013-07-02 16:34:00,
2013-07-02 09:39:00,97.0,60.4,29.81,SE,134,5.0,16.0,30,0.00,,,0.00,Wunderground v.1.15,2013-07-02 16:39:00,
2013-07-02 09:44:00,97.1,61.4,29.82,SW,230,11.0,17.0,31,0.00,,,0.00,Wunderground v.1.15,2013-07-02 16:44:00,
2013-07-02 09:49:00,97.1,61.4,29.83,South,189,4.0,17.0,31,0.00,,,0.00,Wunderground v.1.15,2013-07-02 16:49:00,
2013-07-02 09:54:00,97.0,62.3,29.83,ESE,107,3.0,11.0,32,0.00,,,0.00,Wunderground v.1.15,2013-07-02 16:54:00,
2013-07-02 09:59:00,97.1,61.4,29.84,WSW,245,1.0,16.0,31,0.00,,,0.00,Wunderground v.1.15,2013-07-02 16:59:00,
2013-07-02 10:04:00,97.4,63.5,29.85,WSW,257,8.0,13.0,33,0.00,,,0.00,Wunderground v.1.15,2013-07-02 17:04:00,
2013-07-02 10:09:00,94.8,68.8,29.85,West,269,6.0,13.0,43,0.00,,,0.00,Wunderground v.1.15,2013-07-02 17:09:00,
2013-07-02 10:14:00,93.4,67.6,29.85,WSW,256,8.0,10.0,43,0.00,,,0.00,Wunderground v.1.15,2013-07-02 17:14:00,
2013-07-02 10:19:00,93.7,66.4,29.84,West,267,4.0,13.0,41,0.00,,,0.00,Wunderground v.1.15,2013-07-02 17:19:00,
2013-07-02 10:24:00,94.3,66.3,29.84,West,271,7.0,11.0,40,0.00,,,0.00,Wunderground v.1.15,2013-07-02 17:24:00,
2013-07-02 10:29:00,95.5,66.6,29.84,West,262,6.0,11.0,39,0.00,,,0.00,Wunderground v.1.15,2013-07-02 17:29:00,
2013-07-02 10:34:00,96.2,65.7,29.84,WSW,239,6.0,12.0,37,0.00,,,0.00,Wunderground v.1.15,2013-07-02 17:34:00,
2013-07-02 10:40:00,96.5,66.0,29.84,SW,229,7.0,14.0,37,0.00,,,0.00,Wunderground v.1.15,2013-07-02 17:40:00,
2013-07-02 10:44:00,97.4,65.2,29.84,WSW,243,12.0,12.0,35,0.00,,,0.00,Wunderground v.1.15,2013-07-02 17:44:00,
2013-07-02 10:49:00,98.5,65.3,29.83,West,263,9.0,13.0,34,0.00,,,0.00,Wunderground v.1.15,2013-07-02 17:49:00,
2013-07-02 10:54:00,99.0,65.7,29.83,WSW,253,9.0,13.0,34,0.00,,,0.00,Wunderground v.1.15,2013-07-02 17:54:00,
2013-07-02 11:00:00,99.3,65.1,29.83,East,86,2.0,9.0,33,0.00,,,0.00,Wunderground v.1.15,2013-07-02 18:00:00,
2013-07-02 11:05:00,100.3,63.3,29.83,West,267,13.0,18.0,30,0.00,,,0.00,Wunderground v.1.15,2013-07-02 18:05:00,
2013-07-02 11:10:00,100.5,63.4,29.83,WSW,257,11.0,15.0,30,0.00,,,0.00,Wunderground v.1.15,2013-07-02 18:10:00,
2013-07-02 11:15:00,101.0,63.9,29.82,WSW,245,13.0,18.0,30,0.00,,,0.00,Wunderground v.1.15,2013-07-02 18:15:00,
2013-07-02 11:20:00,101.3,64.1,29.82,WSW,255,11.0,14.0,30,0.00,,,0.00,Wunderground v.1.15,2013-07-02 18:20:00,
2013-07-02 11:25:00,101.6,65.3,29.82,West,281,10.0,18.0,31,0.00,,,0.00,Wunderground v.1.15,2013-07-02 18:25:00,
2013-07-02 11:30:00,102.8,63.4,29.82,WSW,240,7.0,10.0,28,0.00,,,0.00,Wunderground v.1.15,2013-07-02 18:30:00,
2013-07-02 11:35:00,103.1,62.7,29.82,WSW,246,7.0,24.0,27,0.00,,,0.00,Wunderground v.1.15,2013-07-02 18:35:00,
2013-07-02 11:40:00,103.5,61.9,29.82,SW,229,8.0,13.0,26,0.00,,,0.00,Wunderground v.1.15,2013-07-02 18:40:00,
2013-07-02 11:45:00,103.9,61.1,29.82,ESE,113,12.0,22.0,25,0.00,,,0.00,Wunderground v.1.15,2013-07-02 18:45:00,
2013-07-02 11:50:00,103.9,60.0,29.82,WSW,243,8.0,14.0,24,0.00,,,0.00,Wunderground v.1.15,2013-07-02 18:50:00,
2013-07-02 11:55:00,104.1,61.3,29.82,SSE,165,15.0,20.0,25,0.00,,,0.00,Wunderground v.1.15,2013-07-02 18:55:00,
2013-07-02 12:00:00,104.6,60.6,29.82,SW,222,2.0,9.0,24,0.00,,,0.00,Wunderground v.1.15,2013-07-02 19:00:00,
2013-07-02 12:05:00,104.2,61.4,29.82,SE,143,3.0,21.0,25,0.00,,,0.00,Wunderground v.1.15,2013-07-02 19:05:00,
2013-07-02 12:10:00,103.9,61.1,29.82,SSW,200,5.0,10.0,25,0.00,,,0.00,Wunderground v.1.15,2013-07-02 19:10:00,
2013-07-02 12:15:00,103.7,62.1,29.82,WSW,239,14.0,16.0,26,0.00,,,0.00,Wunderground v.1.15,2013-07-02 19:15:00,
2013-07-02 12:20:00,103.4,61.8,29.82,WSW,257,6.0,11.0,26,0.00,,,0.00,Wunderground v.1.15,2013-07-02 19:20:00,
2013-07-02 12:25:00,102.9,61.4,29.82,WSW,254,9.0,16.0,26,0.00,,,0.00,Wunderground v.1.15,2013-07-02 19:25:00,
2013-07-02 12:30:00,103.1,62.7,29.82,West,263,7.0,8.0,27,0.00,,,0.00,Wunderground v.1.15,2013-07-02 19:30:00,
2013-07-02 12:35:00,103.5,63.0,29.82,SW,225,14.0,16.0,27,0.00,,,0.00,Wunderground v.1.15,2013-07-02 19:35:00,
2013-07-02 12:40:00,103.4,61.8,29.82,SE,128,9.0,16.0,26,0.00,,,0.00,Wunderground v.1.15,2013-07-02 19:40:00,
2013-07-02 12:45:00,103.3,61.7,29.81,WSW,252,4.0,16.0,26,0.00,,,0.00,Wunderground v.1.15,2013-07-02 19:45:00,
2013-07-02 12:50:00,103.7,62.1,29.81,WSW,248,10.0,10.0,26,0.00,,,0.00,Wunderground v.1.15,2013-07-02 19:50:00,
2013-07-02 12:55:00,103.7,63.2,29.81,WSW,245,4.0,16.0,27,0.00,,,0.00,Wunderground v.1.15,2013-07-02 19:55:00,
2013-07-02 13:00:00,103.5,61.9,29.81,West,270,4.0,14.0,26,0.00,,,0.00,Wunderground v.1.15,2013-07-02 20:00:00,
2013-07-02 13:05:00,103.2,62.7,29.81,SW,215,7.0,15.0,27,0.00,,,0.00,Wunderground v.1.15,2013-07-02 20:05:00,
2013-07-02 13:11:00,103.0,61.5,29.81,SSE,159,6.0,14.0,26,0.00,,,0.00,Wunderground v.1.15,2013-07-02 20:11:00,
2013-07-02 13:16:00,102.9,62.5,29.80,WSW,240,10.0,14.0,27,0.00,,,0.00,Wunderground v.1.15,2013-07-02 20:16:00,
2013-07-02 13:21:00,102.5,62.1,29.80,WSW,240,8.0,12.0,27,0.00,,,0.00,Wunderground v.1.15,2013-07-02 20:21:00,
2013-07-02 13:26:00,102.5,63.2,29.80,SSW,198,2.0,13.0,28,0.00,,,0.00,Wunderground v.1.15,2013-07-02 20:26:00,
2013-07-02 13:31:00,102.2,61.9,29.80,WSW,239,7.0,7.0,27,0.00,,,0.00,Wunderground v.1.15,2013-07-02 20:31:00,
2013-07-02 13:36:00,102.3,62.0,29.79,SSE,156,2.0,11.0,27,0.00,,,0.00,Wunderground v.1.15,2013-07-02 20:36:00,
2013-07-02 13:41:00,102.4,61.0,29.79,WSW,252,9.0,10.0,26,0.00,,,0.00,Wunderground v.1.15,2013-07-02 20:41:00,
2013-07-02 13:46:00,102.5,62.1,29.79,WSW,252,1.0,10.0,27,0.00,,,0.00,Wunderground v.1.15,2013-07-02 20:46:00,
2013-07-02 13:51:00,103.2,61.7,29.78,WSW,252,4.0,6.0,26,0.00,,,0.00,Wunderground v.1.15,2013-07-02 20:51:00,
2013-07-02 13:56:00,103.9,62.3,29.78,WSW,249,6.0,14.0,26,0.00,,,0.00,Wunderground v.1.15,2013-07-02 20:56:00,
2013-07-02 14:01:00,104.3,62.6,29.77,West,274,7.0,11.0,26,0.00,,,0.00,Wunderground v.1.15,2013-07-02 21:01:00,
2013-07-02 14:06:00,104.7,61.8,29.77,ENE,70,3.0,11.0,25,0.00,,,0.00,Wunderground v.1.15,2013-07-02 21:06:00,
2013-07-02 14:11:00,105.3,61.2,29.77,SSW,208,4.0,13.0,24,0.00,,,0.00,Wunderground v.1.15,2013-07-02 21:11:00,
2013-07-02 14:16:00,105.2,61.1,29.77,SW,226,5.0,13.0,24,0.00,,,0.00,Wunderground v.1.15,2013-07-02 21:16:00,
2013-07-02 14:21:00,105.4,61.2,29.76,SSE,148,4.0,11.0,24,0.00,,,0.00,Wunderground v.1.15,2013-07-02 21:21:00,
2013-07-02 14:26:00,105.7,60.3,29.76,SSE,148,5.0,11.0,23,0.00,,,0.00,Wunderground v.1.15,2013-07-02 21:26:00,
2013-07-02 14:31:00,106.2,59.5,29.76,WSW,243,9.0,9.0,22,0.00,,,0.00,Wunderground v.1.15,2013-07-02 21:31:00,
2013-07-02 14:36:00,106.6,58.5,29.75,SW,226,5.0,13.0,21,0.00,,,0.00,Wunderground v.1.15,2013-07-02 21:36:00,
2013-07-02 14:41:00,106.4,60.9,29.75,NNW,329,6.0,12.0,23,0.00,,,0.00,Wunderground v.1.15,2013-07-02 21:41:00,
2013-07-02 14:47:00,106.0,60.5,29.75,SW,228,9.0,12.0,23,0.00,,,0.00,Wunderground v.1.15,2013-07-02 21:47:00,
2013-07-02 14:52:00,106.1,58.1,29.75,WSW,249,7.0,16.0,21,0.00,,,0.00,Wunderground v.1.15,2013-07-02 21:52:00,
2013-07-02 14:57:00,106.3,58.2,29.74,SW,232,7.0,16.0,21,0.00,,,0.00,Wunderground v.1.15,2013-07-02 21:57:00,
2013-07-02 15:02:00,106.6,57.1,29.74,ESE,114,7.0,16.0,20,0.00,,,0.00,Wunderground v.1.15,2013-07-02 22:02:00,
2013-07-02 15:07:00,106.7,57.2,29.73,WNW,293,3.0,16.0,20,0.00,,,0.00,Wunderground v.1.15,2013-07-02 22:07:00,
2013-07-02 15:12:00,107.3,57.7,29.73,WSW,248,3.0,15.0,20,0.00,,,0.00,Wunderground v.1.15,2013-07-02 22:12:00,
2013-07-02 15:17:00,107.1,57.5,29.73,West,260,3.0,15.0,20,0.00,,,0.00,Wunderground v.1.15,2013-07-02 22:17:00,
2013-07-02 15:22:00,107.4,57.8,29.73,South,186,7.0,11.0,20,0.00,,,0.00,Wunderground v.1.15,2013-07-02 22:22:00,
2013-07-02 15:27:00,107.5,57.9,29.72,SW,226,7.0,14.0,20,0.00,,,0.00,Wunderground v.1.15,2013-07-02 22:27:00,
2013-07-02 15:32:00,108.0,58.3,29.72,SE,129,2.0,5.0,20,0.00,,,0.00,Wunderground v.1.15,2013-07-02 22:32:00,
2013-07-02 15:37:00,108.7,57.4,29.72,West,270,5.0,12.0,19,0.00,,,0.00,Wunderground v.1.15,2013-07-02 22:37:00,
2013-07-02 15:42:00,108.9,56.1,29.72,West,277,2.0,14.0,18,0.00,,,0.00,Wunderground v.1.15,2013-07-02 22:42:00,
2013-07-02 15:47:00,108.7,57.4,29.71,South,191,3.0,14.0,19,0.00,,,0.00,Wunderground v.1.15,2013-07-02 22:47:00,
2013-07-02 15:52:00,108.5,57.2,29.71,ESE,115,3.0,14.0,19,0.00,,,0.00,Wunderground v.1.15,2013-07-02 22:52:00,
2013-07-02 15:57:00,108.7,57.4,29.71,WNW,284,2.0,14.0,19,0.00,,,0.00,Wunderground v.1.15,2013-07-02 22:57:00,
2013-07-02 16:02:00,109.1,56.2,29.70,SW,219,8.0,11.0,18,0.00,,,0.00,Wunderground v.1.15,2013-07-02 23:02:00,
2013-07-02 16:07:00,109.2,56.3,29.70,ESE,122,3.0,15.0,18,0.00,,,0.00,Wunderground v.1.15,2013-07-02 23:07:00,
2013-07-02 16:12:00,109.3,56.4,29.70,SW,229,3.0,10.0,18,0.00,,,0.00,Wunderground v.1.15,2013-07-02 23:12:00,
2013-07-02 16:17:00,109.5,56.6,29.69,WSW,249,7.0,12.0,18,0.00,,,0.00,Wunderground v.1.15,2013-07-02 23:17:00,
2013-07-02 16:22:00,109.6,56.6,29.69,WSW,239,12.0,12.0,18,0.00,,,0.00,Wunderground v.1.15,2013-07-02 23:22:00,
2013-07-02 16:27:00,109.3,56.4,29.69,SW,225,7.0,15.0,18,0.00,,,0.00,Wunderground v.1.15,2013-07-02 23:27:00,
2013-07-02 16:29:00,109.3,56.4,29.68,SW,231,10.0,15.0,18,0.00,,,0.00,Wunderground v.1.15,2013-07-02 23:29:00,
2013-07-02 16:34:00,109.9,56.9,29.68,West,260,2.0,7.0,18,0.00,,,0.00,Wunderground v.1.15,2013-07-02 23:34:00,
2013-07-02 16:39:00,110.7,55.9,29.68,West,274,2.0,7.0,17,0.00,,,0.00,Wunderground v.1.15,2013-07-02 23:39:00,
2013-07-02 16:44:00,111.0,56.2,29.67,SSW,208,7.0,8.0,17,0.00,,,0.00,Wunderground v.1.15,2013-07-02 23:44:00,
2013-07-02 16:49:00,110.6,55.9,29.67,SSW,195,2.0,12.0,17,0.00,,,0.00,Wunderground v.1.15,2013-07-02 23:49:00,
2013-07-02 16:54:00,110.4,55.7,29.67,ESE,115,1.0,10.0,17,0.00,,,0.00,Wunderground v.1.15,2013-07-02 23:54:00,
2013-07-02 16:59:00,110.6,54.2,29.67,ESE,122,1.0,10.0,16,0.00,,,0.00,Wunderground v.1.15,2013-07-02 23:59:00,
2013-07-02 17:01:00,110.5,54.1,29.67,SW,218,6.0,13.0,16,0.00,,,0.00,Wunderground v.1.15,2013-07-03 00:01:00,
2013-07-02 17:06:00,109.5,55.0,29.66,NE,56,3.0,13.0,17,0.00,,,0.00,Wunderground v.1.15,2013-07-03 00:06:00,
2013-07-02 17:11:00,109.6,55.1,29.66,SE,139,1.0,8.0,17,0.00,,,0.00,Wunderground v.1.15,2013-07-03 00:11:00,
2013-07-02 17:16:00,110.3,55.6,29.66,West,269,1.0,8.0,17,0.00,,,0.00,Wunderground v.1.15,2013-07-03 00:16:00,
2013-07-02 17:21:00,110.7,54.3,29.66,SSW,213,5.0,6.0,16,0.00,,,0.00,Wunderground v.1.15,2013-07-03 00:21:00,
2013-07-02 17:23:00,110.7,55.9,29.66,WSW,238,1.0,6.0,17,0.00,,,0.00,Wunderground v.1.15,2013-07-03 00:23:00,
2013-07-02 17:24:00,110.9,54.4,29.66,SW,224,1.0,6.0,16,0.00,,,0.00,Wunderground v.1.15,2013-07-03 00:24:00,
2013-07-02 17:28:00,111.3,54.7,29.66,WNW,290,1.0,6.0,16,0.00,,,0.00,Wunderground v.1.15,2013-07-03 00:28:00,
2013-07-02 17:33:00,110.8,54.3,29.66,SSE,153,3.0,5.0,16,0.00,,,0.00,Wunderground v.1.15,2013-07-03 00:33:00,
2013-07-02 17:38:00,110.9,54.4,29.65,SE,138,1.0,6.0,16,0.00,,,0.00,Wunderground v.1.15,2013-07-03 00:38:00,
2013-07-02 17:43:00,110.7,54.3,29.65,East,93,2.0,6.0,16,0.00,,,0.00,Wunderground v.1.15,2013-07-03 00:43:00,
2013-07-02 17:48:00,110.8,54.3,29.65,SSE,165,2.0,6.0,16,0.00,,,0.00,Wunderground v.1.15,2013-07-03 00:48:00,
2013-07-02 17:53:00,111.1,54.6,29.66,NW,319,1.0,2.0,16,0.00,,,0.00,Wunderground v.1.15,2013-07-03 00:53:00,
2013-07-02 17:58:00,111.5,53.1,29.65,South,169,0.0,4.0,15,0.00,,,0.00,Wunderground v.1.15,2013-07-03 00:58:00,
2013-07-02 18:00:00,111.6,53.2,29.66,SW,216,1.0,1.0,15,0.00,,,0.00,Wunderground v.1.15,2013-07-03 01:00:00,
2013-07-02 18:03:00,111.7,53.3,29.66,SW,221,0.0,3.0,15,0.00,,,0.00,Wunderground v.1.15,2013-07-03 01:03:00,
2013-07-02 18:08:00,111.5,53.1,29.65,WNW,285,1.0,3.0,15,0.00,,,0.00,Wunderground v.1.15,2013-07-03 01:08:00,
2013-07-02 18:09:00,111.5,51.3,29.66,WSW,243,4.0,4.0,14,0.00,,,0.00,Wunderground v.1.15,2013-07-03 01:09:00,
2013-07-02 18:14:00,111.3,51.1,29.66,East,89,1.0,5.0,14,0.00,,,0.00,Wunderground v.1.15,2013-07-03 01:14:00,
2013-07-02 18:19:00,111.6,51.3,29.66,SE,146,1.0,5.0,14,0.00,,,0.00,Wunderground v.1.15,2013-07-03 01:19:00,
2013-07-02 18:24:00,111.6,51.3,29.65,NW,326,0.0,2.0,14,0.00,,,0.00,Wunderground v.1.15,2013-07-03 01:24:00,
2013-07-02 18:26:00,111.6,51.3,29.65,ENE,73,2.0,3.0,14,0.00,,,0.00,Wunderground v.1.15,2013-07-03 01:26:00,
2013-07-02 18:31:00,111.6,51.3,29.65,ESE,106,2.0,3.0,14,0.00,,,0.00,Wunderground v.1.15,2013-07-03 01:31:00,
2013-07-02 18:36:00,111.3,51.1,29.65,SE,135,1.0,5.0,14,0.00,,,0.00,Wunderground v.1.15,2013-07-03 01:36:00,
2013-07-02 18:41:00,111.2,51.0,29.65,SSE,163,2.0,5.0,14,0.00,,,0.00,Wunderground v.1.15,2013-07-03 01:41:00,
2013-07-02 18:46:00,110.8,48.7,29.65,East,91,1.0,5.0,13,0.00,,,0.00,Wunderground v.1.15,2013-07-03 01:46:00,
2013-07-02 18:49:00,110.5,50.5,29.65,West,273,4.0,5.0,14,0.00,,,0.00,Wunderground v.1.15,2013-07-03 01:49:00,
2013-07-02 18:50:00,110.4,50.4,29.65,WNW,291,1.0,2.0,14,0.00,,,0.00,Wunderground v.1.15,2013-07-03 01:50:00,
2013-07-02 18:55:00,110.1,52.0,29.65,NNW,329,1.0,4.0,15,0.00,,,0.00,Wunderground v.1.15,2013-07-03 01:55:00,
2013-07-02 19:01:00,109.7,53.5,29.65,SW,221,2.0,3.0,16,0.00,,,0.00,Wunderground v.1.15,2013-07-03 02:01:00,
2013-07-02 19:06:00,108.9,56.1,29.65,WSW,243,2.0,7.0,18,0.00,,,0.00,Wunderground v.1.15,2013-07-03 02:06:00,
2013-07-02 19:11:00,107.9,56.8,29.65,SE,129,2.0,5.0,19,0.00,,,0.00,Wunderground v.1.15,2013-07-03 02:11:00,
2013-07-02 19:16:00,106.9,58.7,29.65,WSW,243,12.0,12.0,21,0.00,,,0.00,Wunderground v.1.15,2013-07-03 02:16:00,
2013-07-02 19:21:00,105.9,59.2,29.65,South,172,2.0,9.0,22,0.00,,,0.00,Wunderground v.1.15,2013-07-03 02:21:00,
2013-07-02 19:26:00,105.1,59.8,29.65,SE,136,5.0,10.0,23,0.00,,,0.00,Wunderground v.1.15,2013-07-03 02:26:00,
2013-07-02 19:31:00,104.5,60.5,29.65,ESE,103,3.0,3.0,24,0.00,,,0.00,Wunderground v.1.15,2013-07-03 02:31:00,
2013-07-02 19:32:00,104.4,60.4,29.65,WSW,239,4.0,4.0,24,0.00,,,0.00,Wunderground v.1.15,2013-07-03 02:32:00,
2013-07-02 19:37:00,103.7,61.0,29.65,WSW,248,1.0,5.0,25,0.00,,,0.00,Wunderground v.1.15,2013-07-03 02:37:00,
2013-07-02 19:42:00,103.1,60.5,29.65,NNW,346,1.0,4.0,25,0.00,,,0.00,Wunderground v.1.15,2013-07-03 02:42:00,
2013-07-02 19:46:00,102.7,61.2,29.64,SE,138,2.0,4.0,26,0.00,,,0.00,Wunderground v.1.15,2013-07-03 02:46:00,
2013-07-02 19:51:00,102.4,61.0,29.65,South,187,1.0,4.0,26,0.00,,,0.00,Wunderground v.1.15,2013-07-03 02:51:00,
2013-07-02 19:56:00,102.0,60.7,29.65,SW,226,1.0,4.0,26,0.00,,,0.00,Wunderground v.1.15,2013-07-03 02:56:00,
2013-07-02 20:01:00,101.8,60.5,29.65,NNW,348,1.0,3.0,26,0.00,,,0.00,Wunderground v.1.15,2013-07-03 03:01:00,
2013-07-02 20:02:00,101.7,60.4,29.65,NNW,337,1.0,3.0,26,0.00,,,0.00,Wunderground v.1.15,2013-07-03 03:02:00,
2013-07-02 20:07:00,101.5,60.2,29.65,SW,230,0.0,6.0,26,0.00,,,0.00,Wunderground v.1.15,2013-07-03 03:07:00,
2013-07-02 20:12:00,101.5,60.2,29.65,North,8,2.0,5.0,26,0.00,,,0.00,Wunderground v.1.15,2013-07-03 03:12:00,
2013-07-02 20:17:00,101.7,60.4,29.65,WSW,252,1.0,6.0,26,0.00,,,0.00,Wunderground v.1.15,2013-07-03 03:17:00,
2013-07-02 20:20:00,101.7,60.4,29.66,West,260,2.0,3.0,26,0.00,,,0.00,Wunderground v.1.15,2013-07-03 03:20:00,
2013-07-02 20:25:00,101.6,60.3,29.66,East,79,1.0,4.0,26,0.00,,,0.00,Wunderground v.1.15,2013-07-03 03:25:00,
2013-07-02 20:30:00,101.5,59.1,29.66,WSW,249,2.0,2.0,25,0.00,,,0.00,Wunderground v.1.15,2013-07-03 03:30:00,
2013-07-02 20:35:00,101.4,59.0,29.66,WNW,303,3.0,3.0,25,0.00,,,0.00,Wunderground v.1.15,2013-07-03 03:35:00,
2013-07-02 20:39:00,101.4,57.9,29.66,ENE,75,2.0,5.0,24,0.00,,,0.00,Wunderground v.1.15,2013-07-03 03:39:00,
2013-07-02 20:44:00,101.4,57.9,29.66,NNW,333,0.0,4.0,24,0.00,,,0.00,Wunderground v.1.15,2013-07-03 03:44:00,
2013-07-02 20:49:00,101.3,56.6,29.66,NE,46,0.0,4.0,23,0.00,,,0.00,Wunderground v.1.15,2013-07-03 03:49:00,
2013-07-02 20:54:00,101.2,56.6,29.66,West,278,0.0,4.0,23,0.00,,,0.00,Wunderground v.1.15,2013-07-03 03:54:00,
2013-07-02 20:59:00,101.1,56.5,29.67,SW,225,2.0,4.0,23,0.00,,,0.00,Wunderground v.1.15,2013-07-03 03:59:00,
2013-07-02 21:00:00,101.1,56.5,29.67,SE,131,1.0,1.0,23,0.00,,,0.00,Wunderground v.1.15,2013-07-03 04:00:00,
2013-07-02 21:01:00,101.1,56.5,29.67,SE,138,0.0,2.0,23,0.00,,,0.00,Wunderground v.1.15,2013-07-03 04:01:00,
2013-07-02 21:03:00,101.1,56.5,29.67,ESE,112,0.0,2.0,23,0.00,,,0.00,Wunderground v.1.15,2013-07-03 04:03:00,
2013-07-02 21:04:00,101.1,56.5,29.67,WSW,246,0.0,2.0,23,0.00,,,0.00,Wunderground v.1.15,2013-07-03 04:04:00,
2013-07-02 21:09:00,101.2,56.6,29.67,SW,219,1.0,4.0,23,0.00,,,0.00,Wunderground v.1.15,2013-07-03 04:09:00,
2013-07-02 21:14:00,100.9,57.5,29.67,NNW,332,0.0,2.0,24,0.00,,,0.00,Wunderground v.1.15,2013-07-03 04:14:00,
2013-07-02 21:19:00,100.7,57.3,29.68,WNW,297,0.0,3.0,24,0.00,,,0.00,Wunderground v.1.15,2013-07-03 04:19:00,
2013-07-02 21:24:00,100.5,57.2,29.68,WNW,295,0.0,1.0,24,0.00,,,0.00,Wunderground v.1.15,2013-07-03 04:24:00,
2013-07-02 21:29:00,100.4,57.1,29.69,WNW,295,0.0,1.0,24,0.00,,,0.00,Wunderground v.1.15,2013-07-03 04:29:00,
2013-07-02 21:31:00,100.4,57.1,29.69,WNW,295,0.0,0.0,24,0.00,,,0.00,Wunderground v.1.15,2013-07-03 04:31:00,
2013-07-02 21:32:00,100.3,57.0,29.69,WNW,295,0.0,0.0,24,0.00,,,0.00,Wunderground v.1.15,2013-07-03 04:32:00,
2013-07-02 21:37:00,100.2,56.9,29.69,North,353,0.0,1.0,24,0.00,,,0.00,Wunderground v.1.15,2013-07-03 04:37:00,
2013-07-02 21:42:00,100.3,57.0,29.69,NNE,26,0.0,0.0,24,0.00,,,0.00,Wunderground v.1.15,2013-07-03 04:42:00,
2013-07-02 21:45:00,100.2,56.9,29.69,ENE,68,0.0,0.0,24,0.00,,,0.00,Wunderground v.1.15,2013-07-03 04:45:00,
2013-07-02 21:46:00,100.2,55.7,29.69,East,82,0.0,0.0,23,0.00,,,0.00,Wunderground v.1.15,2013-07-03 04:46:00,
2013-07-02 21:51:00,100.2,56.9,29.69,WSW,253,0.0,0.0,24,0.00,,,0.00,Wunderground v.1.15,2013-07-03 04:51:00,
2013-07-02 21:53:00,100.2,56.9,29.69,West,269,1.0,1.0,24,0.00,,,0.00,Wunderground v.1.15,2013-07-03 04:53:00,
2013-07-02 21:58:00,100.3,57.0,29.69,NW,316,0.0,1.0,24,0.00,,,0.00,Wunderground v.1.15,2013-07-03 04:58:00,
2013-07-02 22:03:00,100.3,57.0,29.69,South,184,0.0,1.0,24,0.00,,,0.00,Wunderground v.1.15,2013-07-03 05:03:00,
2013-07-02 22:07:00,100.2,56.9,29.69,South,173,0.0,1.0,24,0.00,,,0.00,Wunderground v.1.15,2013-07-03 05:07:00,
2013-07-02 22:12:00,100.1,56.8,29.69,SSE,149,0.0,0.0,24,0.00,,,0.00,Wunderground v.1.15,2013-07-03 05:12:00,
2013-07-02 22:17:00,99.9,56.7,29.70,South,190,0.0,0.0,24,0.00,,,0.00,Wunderground v.1.15,2013-07-03 05:17:00,
2013-07-02 22:19:00,99.8,56.6,29.70,South,189,0.0,0.0,24,0.00,,,0.00,Wunderground v.1.15,2013-07-03 05:19:00,
2013-07-02 22:24:00,99.6,56.4,29.70,ESE,105,0.0,0.0,24,0.00,,,0.00,Wunderground v.1.15,2013-07-03 05:24:00,
2013-07-02 22:29:00,99.5,56.3,29.70,ENE,72,0.0,1.0,24,0.00,,,0.00,Wunderground v.1.15,2013-07-03 05:29:00,
2013-07-02 22:34:00,99.3,56.1,29.70,East,98,0.0,0.0,24,0.00,,,0.00,Wunderground v.1.15,2013-07-03 05:34:00,
2013-07-02 22:39:00,99.2,57.2,29.70,North,6,0.0,0.0,25,0.00,,,0.00,Wunderground v.1.15,2013-07-03 05:39:00,
2013-07-02 22:44:00,99.2,56.1,29.70,East,93,0.0,0.0,24,0.00,,,0.00,Wunderground v.1.15,2013-07-03 05:44:00,
2013-07-02 22:49:00,99.2,56.1,29.70,East,98,1.0,1.0,24,0.00,,,0.00,Wunderground v.1.15,2013-07-03 05:49:00,
2013-07-02 22:54:00,99.1,56.0,29.70,East,97,0.0,1.0,24,0.00,,,0.00,Wunderground v.1.15,2013-07-03 05:54:00,
2013-07-02 22:57:00,99.0,57.0,29.70,East,98,0.0,1.0,25,0.00,,,0.00,Wunderground v.1.15,2013-07-03 05:57:00,
2013-07-02 22:58:00,99.0,55.9,29.70,East,97,0.0,1.0,24,0.00,,,0.00,Wunderground v.1.15,2013-07-03 05:58:00,
2013-07-02 23:02:00,98.8,56.9,29.70,East,100,0.0,0.0,25,0.00,,,0.00,Wunderground v.1.15,2013-07-03 06:02:00,
2013-07-02 23:07:00,98.6,56.7,29.71,NW,311,0.0,0.0,25,0.00,,,0.00,Wunderground v.1.15,2013-07-03 06:07:00,
2013-07-02 23:12:00,98.5,56.6,29.71,ENE,71,0.0,1.0,25,0.00,,,0.00,Wunderground v.1.15,2013-07-03 06:12:00,
2013-07-02 23:13:00,98.5,56.6,29.71,ENE,65,0.0,1.0,25,0.00,,,0.00,Wunderground v.1.15,2013-07-03 06:13:00,
2013-07-02 23:16:00,98.4,56.5,29.71,NE,44,0.0,1.0,25,0.00,,,0.00,Wunderground v.1.15,2013-07-03 06:16:00,
2013-07-02 23:17:00,98.4,56.5,29.71,NE,44,0.0,1.0,25,0.00,,,0.00,Wunderground v.1.15,2013-07-03 06:17:00,
2013-07-02 23:22:00,98.2,56.4,29.71,NE,37,0.0,0.0,25,0.00,,,0.00,Wunderground v.1.15,2013-07-03 06:22:00,
2013-07-02 23:24:00,98.1,56.3,29.71,NE,37,0.0,0.0,25,0.00,,,0.00,Wunderground v.1.15,2013-07-03 06:24:00,
2013-07-02 23:26:00,98.0,56.2,29.71,East,85,0.0,0.0,25,0.00,,,0.00,Wunderground v.1.15,2013-07-03 06:26:00,
2013-07-02 23:31:00,97.8,56.0,29.71,WNW,301,0.0,0.0,25,0.00,,,0.00,Wunderground v.1.15,2013-07-03 06:31:00,
2013-07-02 23:32:00,97.9,56.1,29.71,WNW,297,0.0,1.0,25,0.00,,,0.00,Wunderground v.1.15,2013-07-03 06:32:00,
2013-07-02 23:37:00,97.9,55.0,29.71,SW,230,0.0,1.0,24,0.00,,,0.00,Wunderground v.1.15,2013-07-03 06:37:00,
2013-07-02 23:42:00,98.0,55.1,29.70,SW,229,0.0,0.0,24,0.00,,,0.00,Wunderground v.1.15,2013-07-03 06:42:00,
2013-07-02 23:43:00,98.0,55.1,29.70,SW,229,0.0,0.0,24,0.00,,,0.00,Wunderground v.1.15,2013-07-03 06:43:00,
2013-07-02 23:48:00,97.8,54.9,29.70,SW,229,0.0,1.0,24,0.00,,,0.00,Wunderground v.1.15,2013-07-03 06:48:00,
2013-07-02 23:53:00,97.6,54.7,29.69,SSW,194,0.0,1.0,24,0.00,,,0.00,Wunderground v.1.15,2013-07-03 06:53:00,
2013-07-02 23:55:00,97.5,54.6,29.69,South,191,0.0,1.0,24,0.00,,,0.00,Wunderground v.1.15,2013-07-03 06:55:00,